»·PEaware :: N1187 KSBA-KSNA

N1187 :: KSBA-KSNA

FLIGHT INFORMATION

Flight Status: Arrived
Operator: Privately registered:
United States
More flights under this callsign
Pilot: Anonymous 12254 (12254)
Aircraft: PILATUS PC-12 EAGLE
(PC12)
More flights by this aircraft type
Origin: KSBA Santa Barbara Mun
United States
Destination: KSNA John Wayne-Orange Co
United States
More flights between these airports :: More routes between these airports
Route: +WEEZL V208 SXC SLI
File this flight plan on PilotEdge
Remarks: TEC route SBAP8
Altitude:
(Current/Filed)
9,000ft
Speed:
(Current/Filed)
220kts
Departed: 24-May-19 09:38 AM
Arrived: 24-May-19 10:23 AM
Distance/Time
Traveled:
108nm/0:45
Distance/Time
To Go:
Arrived

Flight Plot

Page will automatically refresh every two minutes.

Flight plan parsing failed; only flown route is shown


Map Options




Map Legend


Flown Route
Filed Route
Departure Airport
Arrival Airport
Navaid (VOR, NDB)
Fix

Horizontal Profiles

Position Reports

Time Latitude Longitude Heading Altitude Ground
Speed
24-May-19 09:18 34.422651 -119.835588 340 10ft 0kts
24-May-19 09:19 34.422651 -119.835588 340 10ft 0kts
24-May-19 09:20 34.422651 -119.835588 340 10ft 0kts
24-May-19 09:21 34.422651 -119.835588 340 10ft 0kts
24-May-19 09:22 34.422651 -119.835588 340 10ft 0kts
24-May-19 09:23 34.422651 -119.835588 340 10ft 0kts
24-May-19 09:24 34.422651 -119.835588 340 10ft 0kts
24-May-19 09:25 34.422651 -119.835588 340 10ft 0kts
24-May-19 09:26 34.422651 -119.835588 340 10ft 0kts
24-May-19 09:28 34.422651 -119.835588 340 10ft 0kts
24-May-19 09:29 34.422651 -119.835588 340 10ft 0kts
24-May-19 09:30 34.422651 -119.835588 340 10ft 0kts
24-May-19 09:31 34.422651 -119.835588 340 10ft 0kts
24-May-19 09:32 34.422651 -119.835588 340 10ft 0kts
24-May-19 09:33 34.422651 -119.835588 340 10ft 0kts
24-May-19 09:34 34.422651 -119.835588 340 10ft 0kts
24-May-19 09:35 34.424871 -119.837801 344 13ft 20kts
24-May-19 09:36 34.426994 -119.834628 1 10ft 9kts
24-May-19 09:37 34.427829 -119.835006 297 10ft 20kts
24-May-19 09:38 34.425880 -119.868452 261 853ft 123kts
24-May-19 09:39 34.420810 -119.918674 261 2249ft 173kts
24-May-19 09:40 34.382129 -119.925024 152 4063ft 182kts
24-May-19 09:41 34.337427 -119.894859 152 5918ft 182kts
24-May-19 09:42 34.296796 -119.860682 124 7566ft 190kts
24-May-19 09:43 34.265732 -119.807092 125 8956ft 200kts
24-May-19 09:44 34.230211 -119.747108 125 8990ft 226kts
24-May-19 09:45 34.200360 -119.696883 125 8989ft 227kts
24-May-19 09:46 34.162989 -119.634133 125 8989ft 228kts
24-May-19 09:47 34.125439 -119.571452 122 8991ft 236kts
24-May-19 09:47 34.092836 -119.516698 123 8991ft 234kts
24-May-19 09:49 34.047736 -119.441331 123 8991ft 233kts
24-May-19 09:50 34.009836 -119.378134 123 8993ft 232kts
24-May-19 09:50 33.980241 -119.328860 123 8996ft 231kts
24-May-19 09:52 33.943412 -119.267636 124 8999ft 230kts
24-May-19 09:52 33.916093 -119.222305 124 9000ft 229kts
24-May-19 09:53 33.881963 -119.165764 124 8999ft 229kts
24-May-19 09:55 33.837647 -119.092452 124 8999ft 229kts
24-May-19 09:55 33.806281 -119.040651 124 8999ft 229kts
24-May-19 09:56 33.766474 -118.980066 127 9007ft 230kts
24-May-19 09:57 33.725158 -118.920468 127 9009ft 231kts
24-May-19 09:58 33.683878 -118.860759 130 9011ft 228kts
24-May-19 09:59 33.643009 -118.802308 130 9015ft 226kts
24-May-19 10:00 33.602162 -118.743714 130 9017ft 226kts
24-May-19 10:01 33.561329 -118.685265 130 9018ft 226kts
24-May-19 10:02 33.520546 -118.626957 130 9018ft 226kts
24-May-19 10:03 33.480868 -118.570316 130 9017ft 226kts
24-May-19 10:04 33.440259 -118.512438 130 9017ft 226kts
24-May-19 10:05 33.408646 -118.467445 130 9017ft 226kts
24-May-19 10:06 33.393825 -118.406599 49 9033ft 224kts
24-May-19 10:07 33.441133 -118.359436 37 9026ft 226kts
24-May-19 10:08 33.473451 -118.330613 37 9025ft 226kts
24-May-19 10:09 33.507764 -118.300196 37 9020ft 226kts
24-May-19 10:10 33.560952 -118.252986 36 9013ft 226kts
24-May-19 10:11 33.608334 -118.210927 38 9009ft 232kts
24-May-19 10:12 33.645517 -118.177784 37 9009ft 234kts
24-May-19 10:13 33.676574 -118.150080 37 8928ft 237kts
24-May-19 10:14 33.705872 -118.123930 37 8361ft 228kts
24-May-19 10:15 33.739143 -118.094249 37 7691ft 220kts
24-May-19 10:16 33.771767 -118.059977 68 6965ft 214kts
24-May-19 10:17 33.751117 -117.998550 123 5617ft 223kts
24-May-19 10:18 33.734428 -117.936407 95 3858ft 221kts
24-May-19 10:19 33.722144 -117.882969 113 2311ft 159kts
24-May-19 10:20 33.700134 -117.853619 195 931ft 123kts
24-May-19 10:21 33.678235 -117.867212 208 60ft 62kts
24-May-19 10:22 33.675828 -117.871152 333 60ft 9kts

Navigation Log

Ident Type
Flight plan parsing failed, navigation log unavailable